sensor_id;sensor_type;location;lat;lon;timestamp;pressure;altitude;pressure_sealevel;temperature;humidity
56912;BME280;42800;53.928;27.662;2022-10-03T00:01:16;97655.44;;;7.28;100.00
56912;BME280;42800;53.928;27.662;2022-10-03T00:03:51;97646.94;;;7.37;100.00
56912;BME280;42800;53.928;27.662;2022-10-03T00:06:31;97652.34;;;7.26;100.00
56912;BME280;42800;53.928;27.662;2022-10-03T00:09:28;97646.06;;;7.26;100.00
56912;BME280;42800;53.928;27.662;2022-10-03T00:12:11;97637.81;;;7.12;100.00
56912;BME280;42800;53.928;27.662;2022-10-03T00:14:45;97611.47;;;7.30;100.00
56912;BME280;42800;53.928;27.662;2022-10-03T00:17:18;97596.19;;;7.15;100.00
56912;BME280;42800;53.928;27.662;2022-10-03T00:19:52;97591.16;;;7.20;100.00
56912;BME280;42800;53.928;27.662;2022-10-03T00:22:33;97571.69;;;7.25;100.00
56912;BME280;42800;53.928;27.662;2022-10-03T00:25:23;97585.38;;;7.36;100.00
56912;BME280;42800;53.928;27.662;2022-10-03T00:30:51;97570.84;;;7.11;100.00
56912;BME280;42800;53.928;27.662;2022-10-03T00:33:28;97565.88;;;7.27;100.00
56912;BME280;42800;53.928;27.662;2022-10-03T00:36:03;97569.72;;;7.22;100.00
56912;BME280;42800;53.928;27.662;2022-10-03T00:41:59;97545.75;;;7.57;100.00
56912;BME280;42800;53.928;27.662;2022-10-03T00:45:00;97561.28;;;7.45;100.00
56912;BME280;42800;53.928;27.662;2022-10-03T00:48:05;97564.69;;;7.24;100.00
56912;BME280;42800;53.928;27.662;2022-10-03T00:50:54;97554.28;;;7.48;100.00
56912;BME280;42800;53.928;27.662;2022-10-03T00:53:36;97549.13;;;7.25;100.00
56912;BME280;42800;53.928;27.662;2022-10-03T00:56:42;97547.13;;;7.18;100.00
56912;BME280;42800;53.928;27.662;2022-10-03T00:59:24;97542.47;;;7.19;100.00
56912;BME280;42800;53.928;27.662;2022-10-03T01:01:55;97538.16;;;7.14;100.00
56912;BME280;42800;53.928;27.662;2022-10-03T01:04:33;97528.53;;;7.35;100.00
56912;BME280;42800;53.928;27.662;2022-10-03T01:07:15;97529.31;;;7.42;100.00
56912;BME280;42800;53.928;27.662;2022-10-03T01:09:55;97535.53;;;7.39;100.00
56912;BME280;42800;53.928;27.662;2022-10-03T01:12:36;97540.56;;;7.26;100.00
56912;BME280;42800;53.928;27.662;2022-10-03T01:15:18;97541.06;;;7.46;100.00
56912;BME280;42800;53.928;27.662;2022-10-03T01:18:02;97551.56;;;7.44;100.00
56912;BME280;42800;53.928;27.662;2022-10-03T01:20:40;97549.13;;;7.25;100.00
56912;BME280;42800;53.928;27.662;2022-10-03T01:26:25;97544.84;;;7.24;100.00
56912;BME280;42800;53.928;27.662;2022-10-03T01:29:01;97534.28;;;7.15;100.00
56912;BME280;42800;53.928;27.662;2022-10-03T01:31:51;97525.44;;;7.40;100.00
56912;BME280;42800;53.928;27.662;2022-10-03T01:34:24;97532.78;;;7.28;100.00
56912;BME280;42800;53.928;27.662;2022-10-03T01:36:55;97531.50;;;7.08;100.00
56912;BME280;42800;53.928;27.662;2022-10-03T01:39:32;97517.47;;;7.06;100.00
56912;BME280;42800;53.928;27.662;2022-10-03T01:42:05;97506.09;;;6.90;100.00
56912;BME280;42800;53.928;27.662;2022-10-03T01:44:44;97507.00;;;7.08;100.00
56912;BME280;42800;53.928;27.662;2022-10-03T01:47:23;97495.38;;;7.22;100.00
56912;BME280;42800;53.928;27.662;2022-10-03T01:49:55;97504.28;;;7.15;100.00
56912;BME280;42800;53.928;27.662;2022-10-03T01:52:29;97503.63;;;7.40;100.00
56912;BME280;42800;53.928;27.662;2022-10-03T01:55:05;97514.88;;;7.27;100.00
56912;BME280;42800;53.928;27.662;2022-10-03T01:57:41;97524.63;;;7.39;100.00
56912;BME280;42800;53.928;27.662;2022-10-03T02:00:13;97528.56;;;7.42;100.00
56912;BME280;42800;53.928;27.662;2022-10-03T02:02:44;97541.09;;;7.57;100.00
56912;BME280;42800;53.928;27.662;2022-10-03T02:05:18;97541.75;;;7.32;100.00
56912;BME280;42800;53.928;27.662;2022-10-03T02:07:53;97533.97;;;7.31;100.00
56912;BME280;42800;53.928;27.662;2022-10-03T02:10:28;97533.16;;;7.20;100.00
56912;BME280;42800;53.928;27.662;2022-10-03T02:13:03;97515.63;;;7.24;100.00
56912;BME280;42800;53.928;27.662;2022-10-03T02:15:40;97528.09;;;7.29;100.00
56912;BME280;42800;53.928;27.662;2022-10-03T02:18:14;97523.47;;;7.33;100.00
56912;BME280;42800;53.928;27.662;2022-10-03T02:20:47;97534.97;;;6.98;100.00
56912;BME280;42800;53.928;27.662;2022-10-03T02:23:23;97508.06;;;6.93;100.00
56912;BME280;42800;53.928;27.662;2022-10-03T02:25:57;97486.88;;;7.34;100.00
56912;BME280;42800;53.928;27.662;2022-10-03T02:28:37;97488.78;;;7.26;100.00
56912;BME280;42800;53.928;27.662;2022-10-03T02:31:44;97492.66;;;7.22;100.00
56912;BME280;42800;53.928;27.662;2022-10-03T02:34:38;97494.19;;;7.19;100.00
56912;BME280;42800;53.928;27.662;2022-10-03T02:37:34;97501.59;;;7.19;100.00
56912;BME280;42800;53.928;27.662;2022-10-03T02:43:49;97462.91;;;6.88;100.00
56912;BME280;42800;53.928;27.662;2022-10-03T02:49:50;97441.16;;;6.99;100.00
56912;BME280;42800;53.928;27.662;2022-10-03T02:53:14;97428.22;;;6.74;100.00
56912;BME280;42800;53.928;27.662;2022-10-03T02:56:32;97412.81;;;7.11;100.00
56912;BME280;42800;53.928;27.662;2022-10-03T02:59:42;97413.09;;;6.88;100.00
56912;BME280;42800;53.928;27.662;2022-10-03T03:05:51;97380.44;;;6.98;100.00
56912;BME280;42800;53.928;27.662;2022-10-03T03:15:08;97353.59;;;6.93;100.00
56912;BME280;42800;53.928;27.662;2022-10-03T03:17:45;97356.31;;;6.97;100.00
56912;BME280;42800;53.928;27.662;2022-10-03T03:20:29;97343.09;;;7.10;100.00
56912;BME280;42800;53.928;27.662;2022-10-03T03:23:18;97350.03;;;6.82;100.00
56912;BME280;42800;53.928;27.662;2022-10-03T03:26:18;97347.72;;;6.84;100.00
56912;BME280;42800;53.928;27.662;2022-10-03T03:28:53;97339.53;;;6.80;100.00
56912;BME280;42800;53.928;27.662;2022-10-03T03:31:30;97335.28;;;6.87;100.00
56912;BME280;42800;53.928;27.662;2022-10-03T03:34:08;97322.81;;;6.93;100.00
56912;BME280;42800;53.928;27.662;2022-10-03T03:36:43;97321.63;;;6.83;100.00
56912;BME280;42800;53.928;27.662;2022-10-03T03:39:28;97314.28;;;6.94;100.00
56912;BME280;42800;53.928;27.662;2022-10-03T03:42:11;97314.19;;;6.73;100.00
56912;BME280;42800;53.928;27.662;2022-10-03T03:45:01;97303.38;;;6.87;100.00
56912;BME280;42800;53.928;27.662;2022-10-03T03:47:46;97311.19;;;7.06;100.00
56912;BME280;42800;53.928;27.662;2022-10-03T03:50:37;97313.88;;;6.99;100.00
56912;BME280;42800;53.928;27.662;2022-10-03T03:53:25;97308.84;;;7.01;100.00
56912;BME280;42800;53.928;27.662;2022-10-03T03:56:14;97320.91;;;7.00;100.00
56912;BME280;42800;53.928;27.662;2022-10-03T03:58:48;97339.22;;;7.03;100.00
56912;BME280;42800;53.928;27.662;2022-10-03T04:01:40;97360.25;;;7.06;100.00
56912;BME280;42800;53.928;27.662;2022-10-03T04:04:18;97371.81;;;6.82;100.00
56912;BME280;42800;53.928;27.662;2022-10-03T04:06:56;97388.16;;;6.82;100.00
56912;BME280;42800;53.928;27.662;2022-10-03T04:09:45;97373.03;;;6.88;100.00
56912;BME280;42800;53.928;27.662;2022-10-03T04:12:24;97376.16;;;6.94;100.00
56912;BME280;42800;53.928;27.662;2022-10-03T04:15:05;97379.50;;;6.58;100.00
56912;BME280;42800;53.928;27.662;2022-10-03T04:17:46;97348.06;;;6.79;100.00
56912;BME280;42800;53.928;27.662;2022-10-03T04:20:51;97348.47;;;6.81;100.00
56912;BME280;42800;53.928;27.662;2022-10-03T04:23:40;97337.94;;;6.76;100.00
56912;BME280;42800;53.928;27.662;2022-10-03T04:26:21;97330.19;;;6.81;100.00
56912;BME280;42800;53.928;27.662;2022-10-03T04:29:06;97327.81;;;6.76;100.00
56912;BME280;42800;53.928;27.662;2022-10-03T04:31:47;97323.47;;;6.50;100.00
56912;BME280;42800;53.928;27.662;2022-10-03T04:34:24;97305.66;;;6.67;100.00
56912;BME280;42800;53.928;27.662;2022-10-03T04:37:11;97295.13;;;6.73;100.00
56912;BME280;42800;53.928;27.662;2022-10-03T04:39:46;97290.09;;;6.68;100.00
56912;BME280;42800;53.928;27.662;2022-10-03T04:42:26;97292.78;;;6.64;100.00
56912;BME280;42800;53.928;27.662;2022-10-03T04:45:09;97263.28;;;6.77;100.00
56912;BME280;42800;53.928;27.662;2022-10-03T04:47:43;97261.63;;;6.51;100.00
56912;BME280;42800;53.928;27.662;2022-10-03T04:50:23;97237.88;;;6.37;100.00
56912;BME280;42800;53.928;27.662;2022-10-03T04:52:58;97228.22;;;6.65;100.00
56912;BME280;42800;53.928;27.662;2022-10-03T04:55:37;97220.38;;;6.38;100.00
56912;BME280;42800;53.928;27.662;2022-10-03T04:58:14;97216.09;;;6.30;100.00
56912;BME280;42800;53.928;27.662;2022-10-03T05:00:51;97207.56;;;6.46;100.00
56912;BME280;42800;53.928;27.662;2022-10-03T05:03:36;97188.50;;;6.49;100.00
56912;BME280;42800;53.928;27.662;2022-10-03T05:06:21;97172.56;;;6.33;100.00
56912;BME280;42800;53.928;27.662;2022-10-03T05:08:56;97141.47;;;6.59;100.00
56912;BME280;42800;53.928;27.662;2022-10-03T05:11:40;97159.38;;;6.71;100.00
56912;BME280;42800;53.928;27.662;2022-10-03T05:14:17;97154.28;;;6.38;100.00
56912;BME280;42800;53.928;27.662;2022-10-03T05:16:51;97132.94;;;6.54;100.00
56912;BME280;42800;53.928;27.662;2022-10-03T05:19:40;97121.25;;;6.78;100.00
56912;BME280;42800;53.928;27.662;2022-10-03T05:22:21;97131.38;;;6.60;100.00
56912;BME280;42800;53.928;27.662;2022-10-03T05:24:56;97118.13;;;6.41;100.00
56912;BME280;42800;53.928;27.662;2022-10-03T05:27:32;97118.53;;;6.68;100.00
56912;BME280;42800;53.928;27.662;2022-10-03T05:30:06;97103.72;;;6.26;100.00
56912;BME280;42800;53.928;27.662;2022-10-03T05:32:40;97093.63;;;6.44;100.00
56912;BME280;42800;53.928;27.662;2022-10-03T05:35:27;97091.69;;;6.52;100.00
56912;BME280;42800;53.928;27.662;2022-10-03T05:38:11;97087.41;;;6.62;100.00
56912;BME280;42800;53.928;27.662;2022-10-03T05:40:49;97087.81;;;6.56;100.00
56912;BME280;42800;53.928;27.662;2022-10-03T05:43:32;97084.28;;;6.56;100.00
56912;BME280;42800;53.928;27.662;2022-10-03T05:46:07;97076.91;;;6.49;100.00
56912;BME280;42800;53.928;27.662;2022-10-03T05:48:45;97072.25;;;6.53;100.00
56912;BME280;42800;53.928;27.662;2022-10-03T05:51:43;97085.88;;;6.50;100.00
56912;BME280;42800;53.928;27.662;2022-10-03T05:57:38;97080.03;;;6.44;100.00
56912;BME280;42800;53.928;27.662;2022-10-03T06:00:16;97072.22;;;6.43;100.00
56912;BME280;42800;53.928;27.662;2022-10-03T06:02:52;97083.88;;;6.40;100.00
56912;BME280;42800;53.928;27.662;2022-10-03T06:05:40;97092.88;;;6.51;100.00
56912;BME280;42800;53.928;27.662;2022-10-03T06:08:38;97100.25;;;6.50;100.00
56912;BME280;42800;53.928;27.662;2022-10-03T06:11:20;97115.81;;;6.57;100.00
56912;BME280;42800;53.928;27.662;2022-10-03T06:16:58;97115.00;;;6.28;100.00
56912;BME280;42800;53.928;27.662;2022-10-03T06:19:42;97102.91;;;6.15;100.00
56912;BME280;42800;53.928;27.662;2022-10-03T06:22:43;97095.19;;;6.31;100.00
56912;BME280;42800;53.928;27.662;2022-10-03T06:34:51;97056.69;;;6.50;100.00
56912;BME280;42800;53.928;27.662;2022-10-03T06:41:15;97064.47;;;6.48;100.00
56912;BME280;42800;53.928;27.662;2022-10-03T06:46:55;97089.75;;;6.42;100.00
56912;BME280;42800;53.928;27.662;2022-10-03T06:49:48;97080.41;;;6.35;100.00
56912;BME280;42800;53.928;27.662;2022-10-03T06:52:37;97083.13;;;6.35;100.00
56912;BME280;42800;53.928;27.662;2022-10-03T06:55:43;97086.19;;;6.20;100.00
56912;BME280;42800;53.928;27.662;2022-10-03T06:58:33;97078.44;;;6.18;100.00
56912;BME280;42800;53.928;27.662;2022-10-03T07:01:29;97070.66;;;6.13;100.00
56912;BME280;42800;53.928;27.662;2022-10-03T07:04:17;97045.78;;;6.07;100.00
56912;BME280;42800;53.928;27.662;2022-10-03T07:07:20;97043.06;;;6.00;100.00
56912;BME280;42800;53.928;27.662;2022-10-03T07:10:11;97030.22;;;5.97;100.00
56912;BME280;42800;53.928;27.662;2022-10-03T07:13:21;97015.44;;;5.95;100.00
56912;BME280;42800;53.928;27.662;2022-10-03T07:16:30;97019.34;;;6.04;100.00
56912;BME280;42800;53.928;27.662;2022-10-03T07:28:21;97025.97;;;6.25;100.00
56912;BME280;42800;53.928;27.662;2022-10-03T07:31:01;97041.84;;;5.90;100.00
56912;BME280;42800;53.928;27.662;2022-10-03T07:33:45;97027.50;;;6.19;100.00
56912;BME280;42800;53.928;27.662;2022-10-03T07:36:30;97033.31;;;6.06;100.00
56912;BME280;42800;53.928;27.662;2022-10-03T07:42:49;97029.47;;;6.15;100.00
56912;BME280;42800;53.928;27.662;2022-10-03T07:45:33;97037.63;;;6.25;100.00
56912;BME280;42800;53.928;27.662;2022-10-03T07:51:04;97053.47;;;5.87;100.00
56912;BME280;42800;53.928;27.662;2022-10-03T07:53:59;97042.97;;;5.75;100.00
56912;BME280;42800;53.928;27.662;2022-10-03T07:56:55;97045.69;;;5.82;100.00
56912;BME280;42800;53.928;27.662;2022-10-03T07:59:49;97040.22;;;5.72;100.00
56912;BME280;42800;53.928;27.662;2022-10-03T08:02:36;97034.88;;;5.93;100.00
56912;BME280;42800;53.928;27.662;2022-10-03T08:05:21;97047.56;;;5.57;100.00
56912;BME280;42800;53.928;27.662;2022-10-03T08:08:09;97049.16;;;5.72;100.00
56912;BME280;42800;53.928;27.662;2022-10-03T08:11:05;97057.28;;;5.65;100.00
56912;BME280;42800;53.928;27.662;2022-10-03T08:16:39;97064.69;;;5.68;100.00
56912;BME280;42800;53.928;27.662;2022-10-03T08:19:21;97070.44;;;5.45;100.00
56912;BME280;42800;53.928;27.662;2022-10-03T08:22:04;97066.50;;;5.39;100.00
56912;BME280;42800;53.928;27.662;2022-10-03T08:25:09;97047.16;;;5.48;100.00
56912;BME280;42800;53.928;27.662;2022-10-03T08:27:52;97053.34;;;5.45;100.00
56912;BME280;42800;53.928;27.662;2022-10-03T08:30:31;97048.22;;;5.25;100.00
56912;BME280;42800;53.928;27.662;2022-10-03T08:33:27;97055.69;;;5.50;100.00
56912;BME280;42800;53.928;27.662;2022-10-03T08:36:29;97045.63;;;5.57;100.00
56912;BME280;42800;53.928;27.662;2022-10-03T08:39:18;97042.91;;;5.50;100.00
56912;BME280;42800;53.928;27.662;2022-10-03T08:42:22;97039.81;;;5.62;100.00
56912;BME280;42800;53.928;27.662;2022-10-03T08:45:19;97051.84;;;5.65;100.00
56912;BME280;42800;53.928;27.662;2022-10-03T08:48:29;97047.94;;;5.55;100.00
56912;BME280;42800;53.928;27.662;2022-10-03T08:51:10;97050.19;;;5.35;100.00
56912;BME280;42800;53.928;27.662;2022-10-03T08:54:07;97045.13;;;5.27;100.00
56912;BME280;42800;53.928;27.662;2022-10-03T08:56:53;97025.31;;;5.30;100.00
56912;BME280;42800;53.928;27.662;2022-10-03T09:00:01;97011.03;;;5.40;100.00
56912;BME280;42800;53.928;27.662;2022-10-03T09:03:00;96995.88;;;5.39;100.00
56912;BME280;42800;53.928;27.662;2022-10-03T09:09:21;96969.72;;;5.06;100.00
56912;BME280;42800;53.928;27.662;2022-10-03T09:12:23;96972.16;;;5.32;100.00
56912;BME280;42800;53.928;27.662;2022-10-03T09:15:10;96957.03;;;5.28;100.00
56912;BME280;42800;53.928;27.662;2022-10-03T09:21:12;96968.66;;;5.28;100.00
56912;BME280;42800;53.928;27.662;2022-10-03T09:23:57;96969.44;;;5.29;100.00
56912;BME280;42800;53.928;27.662;2022-10-03T09:26:45;96961.69;;;5.24;100.00
56912;BME280;42800;53.928;27.662;2022-10-03T09:29:39;96964.03;;;5.36;100.00
56912;BME280;42800;53.928;27.662;2022-10-03T09:35:51;96980.16;;;4.93;100.00
56912;BME280;42800;53.928;27.662;2022-10-03T09:38:45;96968.22;;;5.19;100.00
56912;BME280;42800;53.928;27.662;2022-10-03T09:56:56;96999.97;;;4.97;100.00
56912;BME280;42800;53.928;27.662;2022-10-03T09:59:49;96999.19;;;4.97;100.00
56912;BME280;42800;53.928;27.662;2022-10-03T10:02:54;97002.28;;;4.95;100.00
56912;BME280;42800;53.928;27.662;2022-10-03T10:08:36;97019.75;;;4.94;100.00
56912;BME280;42800;53.928;27.662;2022-10-03T10:11:25;97029.75;;;4.86;100.00
56912;BME280;42800;53.928;27.662;2022-10-03T10:14:25;97016.47;;;4.67;100.00
56912;BME280;42800;53.928;27.662;2022-10-03T10:17:27;97024.22;;;4.65;100.00
56912;BME280;42800;53.928;27.662;2022-10-03T10:20:12;97006.41;;;4.71;100.00
56912;BME280;42800;53.928;27.662;2022-10-03T10:23:14;96987.78;;;4.73;100.00
56912;BME280;42800;53.928;27.662;2022-10-03T10:29:09;97001.88;;;4.93;100.00
56912;BME280;42800;53.928;27.662;2022-10-03T10:35:16;97019.72;;;4.90;100.00
56912;BME280;42800;53.928;27.662;2022-10-03T10:38:20;97019.81;;;5.12;100.00
56912;BME280;42800;53.928;27.662;2022-10-03T10:44:21;97028.72;;;5.05;100.00
56912;BME280;42800;53.928;27.662;2022-10-03T10:47:11;97053.78;;;4.81;100.00
56912;BME280;42800;53.928;27.662;2022-10-03T10:56:12;97055.84;;;5.02;100.00
56912;BME280;42800;53.928;27.662;2022-10-03T10:59:32;97079.75;;;4.78;100.00
56912;BME280;42800;53.928;27.662;2022-10-03T11:05:45;97067.94;;;5.15;100.00
56912;BME280;42800;53.928;27.662;2022-10-03T11:09:03;97080.22;;;4.91;100.00
56912;BME280;42800;53.928;27.662;2022-10-03T11:12:23;97075.16;;;4.89;100.00
56912;BME280;42800;53.928;27.662;2022-10-03T11:15:23;97075.88;;;4.83;100.00
56912;BME280;42800;53.928;27.662;2022-10-03T11:30:37;97059.91;;;4.67;100.00
56912;BME280;42800;53.928;27.662;2022-10-03T11:33:54;97042.34;;;5.19;100.00
56912;BME280;42800;53.928;27.662;2022-10-03T11:39:26;97054.69;;;5.03;100.00
56912;BME280;42800;53.928;27.662;2022-10-03T11:42:00;97042.59;;;4.93;100.00
56912;BME280;42800;53.928;27.662;2022-10-03T11:44:30;97043.72;;;4.85;100.00
56912;BME280;42800;53.928;27.662;2022-10-03T11:50:25;97045.69;;;4.88;100.00
56912;BME280;42800;53.928;27.662;2022-10-03T11:53:06;97047.38;;;5.10;100.00
56912;BME280;42800;53.928;27.662;2022-10-03T11:55:39;97055.91;;;5.16;100.00
56912;BME280;42800;53.928;27.662;2022-10-03T11:58:27;97074.94;;;5.16;100.00
56912;BME280;42800;53.928;27.662;2022-10-03T12:01:04;97084.75;;;4.76;100.00
56912;BME280;42800;53.928;27.662;2022-10-03T12:03:42;97098.06;;;4.92;100.00
56912;BME280;42800;53.928;27.662;2022-10-03T12:06:15;97113.19;;;4.93;100.00
56912;BME280;42800;53.928;27.662;2022-10-03T12:09:15;97104.47;;;5.21;100.00
56912;BME280;42800;53.928;27.662;2022-10-03T12:11:50;97109.94;;;5.32;100.00
56912;BME280;42800;53.928;27.662;2022-10-03T12:14:25;97126.59;;;5.23;100.00
56912;BME280;42800;53.928;27.662;2022-10-03T12:17:04;97118.03;;;5.21;100.00
56912;BME280;42800;53.928;27.662;2022-10-03T12:19:39;97129.22;;;5.12;100.00
56912;BME280;42800;53.928;27.662;2022-10-03T12:22:28;97121.47;;;5.07;100.00
56912;BME280;42800;53.928;27.662;2022-10-03T12:25:03;97127.41;;;5.31;100.00
56912;BME280;42800;53.928;27.662;2022-10-03T12:27:41;97145.69;;;5.37;100.00
56912;BME280;42800;53.928;27.662;2022-10-03T12:30:14;97153.09;;;5.37;100.00
56912;BME280;42800;53.928;27.662;2022-10-03T12:32:48;97151.16;;;5.41;100.00
56912;BME280;42800;53.928;27.662;2022-10-03T12:35:30;97162.84;;;5.52;100.00
56912;BME280;42800;53.928;27.662;2022-10-03T12:38:22;97176.84;;;5.54;100.00
56912;BME280;42800;53.928;27.662;2022-10-03T12:40:57;97172.47;;;5.35;100.00
56912;BME280;42800;53.928;27.662;2022-10-03T12:43:37;97169.69;;;5.25;100.00
56912;BME280;42800;53.928;27.662;2022-10-03T12:46:13;97160.47;;;5.40;100.00
56912;BME280;42800;53.928;27.662;2022-10-03T12:48:45;97165.09;;;5.36;100.00
56912;BME280;42800;53.928;27.662;2022-10-03T12:51:36;97163.53;;;5.35;100.00
56912;BME280;42800;53.928;27.662;2022-10-03T12:54:14;97161.72;;;5.57;100.00
56912;BME280;42800;53.928;27.662;2022-10-03T12:56:45;97161.56;;;5.32;100.00
56912;BME280;42800;53.928;27.662;2022-10-03T12:59:17;97156.50;;;5.23;100.00
56912;BME280;42800;53.928;27.662;2022-10-03T13:02:05;97162.34;;;5.29;100.00
56912;BME280;42800;53.928;27.662;2022-10-03T13:04:43;97155.56;;;5.67;100.00
56912;BME280;42800;53.928;27.662;2022-10-03T13:07:24;97170.63;;;5.50;100.00
56912;BME280;42800;53.928;27.662;2022-10-03T13:10:03;97194.13;;;5.25;100.00
56912;BME280;42800;53.928;27.662;2022-10-03T13:12:39;97168.22;;;5.38;100.00
56912;BME280;42800;53.928;27.662;2022-10-03T13:15:40;97165.13;;;5.43;100.00
56912;BME280;42800;53.928;27.662;2022-10-03T13:18:35;97193.38;;;5.28;100.00
56912;BME280;42800;53.928;27.662;2022-10-03T13:21:09;97198.72;;;5.13;100.00
56912;BME280;42800;53.928;27.662;2022-10-03T13:23:44;97204.78;;;5.00;100.00
56912;BME280;42800;53.928;27.662;2022-10-03T13:26:16;97197.50;;;5.07;100.00
56912;BME280;42800;53.928;27.662;2022-10-03T13:31:47;97195.44;;;4.90;100.00
56912;BME280;42800;53.928;27.662;2022-10-03T13:34:22;97190.19;;;4.67;100.00
56912;BME280;42800;53.928;27.662;2022-10-03T13:36:54;97160.19;;;4.97;100.00
56912;BME280;42800;53.928;27.662;2022-10-03T13:39:25;97160.59;;;5.03;100.00
56912;BME280;42800;53.928;27.662;2022-10-03T13:41:59;97166.03;;;5.06;100.00
56912;BME280;42800;53.928;27.662;2022-10-03T13:44:36;97189.66;;;4.99;100.00
56912;BME280;42800;53.928;27.662;2022-10-03T13:47:17;97175.66;;;4.93;100.00
56912;BME280;42800;53.928;27.662;2022-10-03T13:49:52;97175.41;;;4.64;100.00
56912;BME280;42800;53.928;27.662;2022-10-03T13:52:27;97185.84;;;4.62;100.00
56912;BME280;42800;53.928;27.662;2022-10-03T13:55:12;97172.34;;;4.69;100.00
56912;BME280;42800;53.928;27.662;2022-10-03T13:57:45;97170.94;;;4.42;100.00
56912;BME280;42800;53.928;27.662;2022-10-03T14:00:19;97159.97;;;4.72;100.00
56912;BME280;42800;53.928;27.662;2022-10-03T14:03:09;97171.59;;;4.72;100.00
56912;BME280;42800;53.928;27.662;2022-10-03T14:06:02;97151.47;;;4.74;100.00
56912;BME280;42800;53.928;27.662;2022-10-03T14:09:09;97147.09;;;4.62;100.00
56912;BME280;42800;53.928;27.662;2022-10-03T14:11:46;97142.63;;;4.43;100.00
56912;BME280;42800;53.928;27.662;2022-10-03T14:17:18;97119.53;;;4.60;100.00
56912;BME280;42800;53.928;27.662;2022-10-03T14:20:03;97126.34;;;4.39;100.00
56912;BME280;42800;53.928;27.662;2022-10-03T14:22:42;97115.88;;;4.86;100.00
56912;BME280;42800;53.928;27.662;2022-10-03T14:25:19;97134.00;;;4.71;100.00
56912;BME280;42800;53.928;27.662;2022-10-03T14:27:53;97142.91;;;4.71;100.00
56912;BME280;42800;53.928;27.662;2022-10-03T14:30:21;97134.00;;;4.71;100.00
56912;BME280;42800;53.928;27.662;2022-10-03T14:33:03;97144.72;;;4.57;100.00
56912;BME280;42800;53.928;27.662;2022-10-03T14:35:38;97157.22;;;4.68;100.00
56912;BME280;42800;53.928;27.662;2022-10-03T14:38:29;97161.59;;;4.80;100.00
56912;BME280;42800;53.928;27.662;2022-10-03T14:41:19;97165.56;;;4.49;100.00
56912;BME280;42800;53.928;27.662;2022-10-03T14:43:48;97174.94;;;4.55;100.00
56912;BME280;42800;53.928;27.662;2022-10-03T14:46:18;97149.53;;;4.74;100.00
56912;BME280;42800;53.928;27.662;2022-10-03T14:48:46;97179.34;;;4.70;100.00
56912;BME280;42800;53.928;27.662;2022-10-03T14:51:18;97185.81;;;4.59;100.00
56912;BME280;42800;53.928;27.662;2022-10-03T14:53:51;97178.97;;;4.72;100.00
56912;BME280;42800;53.928;27.662;2022-10-03T14:56:20;97185.78;;;4.55;100.00
56912;BME280;42800;53.928;27.662;2022-10-03T14:58:51;97165.78;;;4.70;100.00
56912;BME280;42800;53.928;27.662;2022-10-03T15:01:21;97173.75;;;4.53;100.00
56912;BME280;42800;53.928;27.662;2022-10-03T15:03:57;97170.31;;;4.59;100.00
56912;BME280;42800;53.928;27.662;2022-10-03T15:06:47;97164.94;;;4.66;100.00
56912;BME280;42800;53.928;27.662;2022-10-03T15:09:17;97171.16;;;4.63;100.00
56912;BME280;42800;53.928;27.662;2022-10-03T15:11:46;97178.50;;;4.63;100.00
56912;BME280;42800;53.928;27.662;2022-10-03T15:14:14;97181.22;;;4.66;100.00
56912;BME280;42800;53.928;27.662;2022-10-03T15:16:44;97205.16;;;4.50;100.00
56912;BME280;42800;53.928;27.662;2022-10-03T15:19:16;97187.88;;;4.72;100.00
56912;BME280;42800;53.928;27.662;2022-10-03T15:21:44;97192.28;;;4.88;100.00
56912;BME280;42800;53.928;27.662;2022-10-03T15:24:17;97207.25;;;4.67;100.00
56912;BME280;42800;53.928;27.662;2022-10-03T15:26:49;97206.94;;;4.80;100.00
56912;BME280;42800;53.928;27.662;2022-10-03T15:29:19;97222.00;;;4.70;100.00
56912;BME280;42800;53.928;27.662;2022-10-03T15:31:46;97220.13;;;4.78;100.00
56912;BME280;42800;53.928;27.662;2022-10-03T15:34:16;97232.31;;;4.54;100.00
56912;BME280;42800;53.928;27.662;2022-10-03T15:36:47;97220.50;;;4.76;100.00
56912;BME280;42800;53.928;27.662;2022-10-03T15:39:18;97224.28;;;4.64;100.00
56912;BME280;42800;53.928;27.662;2022-10-03T15:41:53;97222.66;;;4.60;100.00
56912;BME280;42800;53.928;27.662;2022-10-03T15:44:24;97213.50;;;4.34;100.00
56912;BME280;42800;53.928;27.662;2022-10-03T15:46:59;97220.22;;;4.47;100.00
56912;BME280;42800;53.928;27.662;2022-10-03T15:49:32;97216.00;;;4.50;100.00
56912;BME280;42800;53.928;27.662;2022-10-03T15:52:13;97216.31;;;4.45;100.00
56912;BME280;42800;53.928;27.662;2022-10-03T15:54:45;97208.06;;;4.34;100.00
56912;BME280;42800;53.928;27.662;2022-10-03T15:57:18;97202.50;;;4.20;100.00
56912;BME280;42800;53.928;27.662;2022-10-03T15:59:50;97176.94;;;4.21;100.00
56912;BME280;42800;53.928;27.662;2022-10-03T16:02:22;97194.63;;;4.11;100.00
56912;BME280;42800;53.928;27.662;2022-10-03T16:04:54;97184.34;;;4.28;100.00
56912;BME280;42800;53.928;27.662;2022-10-03T16:07:27;97189.41;;;4.29;100.00
56912;BME280;42800;53.928;27.662;2022-10-03T16:10:09;97191.69;;;4.23;100.00
56912;BME280;42800;53.928;27.662;2022-10-03T16:12:55;97203.47;;;4.38;100.00
56912;BME280;42800;53.928;27.662;2022-10-03T16:15:27;97217.06;;;4.42;100.00
56912;BME280;42800;53.928;27.662;2022-10-03T16:18:04;97198.75;;;4.32;100.00
56912;BME280;42800;53.928;27.662;2022-10-03T16:20:38;97190.94;;;4.27;100.00
56912;BME280;42800;53.928;27.662;2022-10-03T16:23:13;97197.31;;;4.08;100.00
56912;BME280;42800;53.928;27.662;2022-10-03T16:25:46;97187.06;;;4.28;100.00
56912;BME280;42800;53.928;27.662;2022-10-03T16:28:17;97187.31;;;4.15;100.00
56912;BME280;42800;53.928;27.662;2022-10-03T16:30:52;97195.22;;;4.28;100.00